sensor_id;sensor_type;location;lat;lon;timestamp;P1;durP1;ratioP1;P2;durP2;ratioP2
31910;SDS011;18457;52.432;16.914;2023-08-31T00:01:39;17.10;;;11.10;;
31910;SDS011;18457;52.432;16.914;2023-08-31T00:04:11;18.10;;;10.80;;
31910;SDS011;18457;52.432;16.914;2023-08-31T00:06:44;16.20;;;10.60;;
31910;SDS011;18457;52.432;16.914;2023-08-31T00:09:16;17.80;;;10.20;;
31910;SDS011;18457;52.432;16.914;2023-08-31T00:11:48;16.70;;;10.20;;
31910;SDS011;18457;52.432;16.914;2023-08-31T00:14:20;20.00;;;11.60;;
31910;SDS011;18457;52.432;16.914;2023-08-31T00:17:20;16.40;;;10.90;;
31910;SDS011;18457;52.432;16.914;2023-08-31T00:19:52;15.10;;;10.30;;
31910;SDS011;18457;52.432;16.914;2023-08-31T00:22:24;11.00;;;7.40;;
31910;SDS011;18457;52.432;16.914;2023-08-31T00:24:57;16.80;;;10.10;;
31910;SDS011;18457;52.432;16.914;2023-08-31T00:27:29;20.50;;;11.10;;
31910;SDS011;18457;52.432;16.914;2023-08-31T00:30:01;10.20;;;7.80;;
31910;SDS011;18457;52.432;16.914;2023-08-31T00:32:35;15.90;;;11.70;;
31910;SDS011;18457;52.432;16.914;2023-08-31T00:35:09;13.80;;;11.00;;
31910;SDS011;18457;52.432;16.914;2023-08-31T00:37:41;19.30;;;11.90;;
31910;SDS011;18457;52.432;16.914;2023-08-31T00:40:17;15.00;;;10.80;;
31910;SDS011;18457;52.432;16.914;2023-08-31T00:42:49;15.30;;;10.50;;
31910;SDS011;18457;52.432;16.914;2023-08-31T00:45:21;15.90;;;11.30;;
31910;SDS011;18457;52.432;16.914;2023-08-31T00:47:53;17.60;;;10.90;;
31910;SDS011;18457;52.432;16.914;2023-08-31T00:52:56;18.70;;;12.10;;
31910;SDS011;18457;52.432;16.914;2023-08-31T00:55:28;16.20;;;11.70;;
31910;SDS011;18457;52.432;16.914;2023-08-31T00:58:03;18.70;;;11.30;;
31910;SDS011;18457;52.432;16.914;2023-08-31T01:00:40;21.70;;;12.50;;
31910;SDS011;18457;52.432;16.914;2023-08-31T01:03:22;23.30;;;14.10;;
31910;SDS011;18457;52.432;16.914;2023-08-31T01:06:11;20.20;;;13.80;;
31910;SDS011;18457;52.432;16.914;2023-08-31T01:08:50;24.40;;;14.30;;
31910;SDS011;18457;52.432;16.914;2023-08-31T01:11:29;24.40;;;13.70;;
31910;SDS011;18457;52.432;16.914;2023-08-31T01:14:07;24.00;;;14.10;;
31910;SDS011;18457;52.432;16.914;2023-08-31T01:16:47;24.30;;;13.50;;
31910;SDS011;18457;52.432;16.914;2023-08-31T01:19:24;23.30;;;14.10;;
31910;SDS011;18457;52.432;16.914;2023-08-31T01:25:10;20.40;;;13.30;;
31910;SDS011;18457;52.432;16.914;2023-08-31T01:27:42;29.70;;;14.50;;
31910;SDS011;18457;52.432;16.914;2023-08-31T01:30:16;24.90;;;14.40;;
31910;SDS011;18457;52.432;16.914;2023-08-31T01:32:48;19.50;;;12.80;;
31910;SDS011;18457;52.432;16.914;2023-08-31T01:35:21;19.50;;;13.50;;
31910;SDS011;18457;52.432;16.914;2023-08-31T01:37:53;19.00;;;13.00;;
31910;SDS011;18457;52.432;16.914;2023-08-31T01:40:30;25.50;;;14.50;;
31910;SDS011;18457;52.432;16.914;2023-08-31T01:43:04;20.00;;;12.90;;
31910;SDS011;18457;52.432;16.914;2023-08-31T01:45:38;22.40;;;13.90;;
31910;SDS011;18457;52.432;16.914;2023-08-31T01:48:14;24.40;;;13.80;;
31910;SDS011;18457;52.432;16.914;2023-08-31T01:53:16;24.60;;;13.90;;
31910;SDS011;18457;52.432;16.914;2023-08-31T01:55:48;14.60;;;9.80;;
31910;SDS011;18457;52.432;16.914;2023-08-31T01:58:20;21.80;;;13.30;;
31910;SDS011;18457;52.432;16.914;2023-08-31T02:00:52;19.90;;;14.60;;
31910;SDS011;18457;52.432;16.914;2023-08-31T02:03:26;20.40;;;13.70;;
31910;SDS011;18457;52.432;16.914;2023-08-31T02:05:58;19.80;;;13.10;;
31910;SDS011;18457;52.432;16.914;2023-08-31T02:08:30;24.30;;;14.10;;
31910;SDS011;18457;52.432;16.914;2023-08-31T02:11:02;20.40;;;13.70;;
31910;SDS011;18457;52.432;16.914;2023-08-31T02:13:34;24.80;;;13.90;;
31910;SDS011;18457;52.432;16.914;2023-08-31T02:16:06;21.30;;;12.60;;
31910;SDS011;18457;52.432;16.914;2023-08-31T02:18:39;22.80;;;13.00;;
31910;SDS011;18457;52.432;16.914;2023-08-31T02:21:11;19.80;;;12.80;;
31910;SDS011;18457;52.432;16.914;2023-08-31T02:23:43;21.60;;;12.30;;
31910;SDS011;18457;52.432;16.914;2023-08-31T02:26:15;21.70;;;12.40;;
31910;SDS011;18457;52.432;16.914;2023-08-31T02:28:49;17.60;;;12.10;;
31910;SDS011;18457;52.432;16.914;2023-08-31T02:31:21;17.80;;;12.40;;
31910;SDS011;18457;52.432;16.914;2023-08-31T02:33:53;18.80;;;12.20;;
31910;SDS011;18457;52.432;16.914;2023-08-31T02:36:25;25.30;;;11.90;;
31910;SDS011;18457;52.432;16.914;2023-08-31T02:38:57;16.10;;;12.30;;
31910;SDS011;18457;52.432;16.914;2023-08-31T02:41:29;18.80;;;12.90;;
31910;SDS011;18457;52.432;16.914;2023-08-31T02:44:01;22.60;;;13.20;;
31910;SDS011;18457;52.432;16.914;2023-08-31T02:46:33;20.90;;;12.80;;
31910;SDS011;18457;52.432;16.914;2023-08-31T02:49:05;18.90;;;12.00;;
31910;SDS011;18457;52.432;16.914;2023-08-31T02:51:37;20.00;;;12.30;;
31910;SDS011;18457;52.432;16.914;2023-08-31T02:54:09;12.10;;;9.00;;
31910;SDS011;18457;52.432;16.914;2023-08-31T02:56:41;17.20;;;11.80;;
31910;SDS011;18457;52.432;16.914;2023-08-31T02:59:13;18.50;;;13.20;;
31910;SDS011;18457;52.432;16.914;2023-08-31T03:01:46;26.00;;;13.50;;
31910;SDS011;18457;52.432;16.914;2023-08-31T03:04:18;19.70;;;13.10;;
31910;SDS011;18457;52.432;16.914;2023-08-31T03:06:51;21.80;;;14.10;;
31910;SDS011;18457;52.432;16.914;2023-08-31T03:09:23;17.50;;;13.20;;
31910;SDS011;18457;52.432;16.914;2023-08-31T03:12:24;21.60;;;13.80;;
31910;SDS011;18457;52.432;16.914;2023-08-31T03:14:56;21.10;;;14.10;;
31910;SDS011;18457;52.432;16.914;2023-08-31T03:17:28;23.80;;;13.90;;
31910;SDS011;18457;52.432;16.914;2023-08-31T03:20:00;25.50;;;14.20;;
31910;SDS011;18457;52.432;16.914;2023-08-31T03:22:35;21.40;;;13.90;;
31910;SDS011;18457;52.432;16.914;2023-08-31T03:25:07;23.60;;;13.40;;
31910;SDS011;18457;52.432;16.914;2023-08-31T03:27:39;18.50;;;13.90;;
31910;SDS011;18457;52.432;16.914;2023-08-31T03:30:12;22.60;;;13.60;;
31910;SDS011;18457;52.432;16.914;2023-08-31T03:32:44;18.90;;;13.20;;
31910;SDS011;18457;52.432;16.914;2023-08-31T03:35:16;23.00;;;13.80;;
31910;SDS011;18457;52.432;16.914;2023-08-31T03:37:48;16.70;;;12.10;;
31910;SDS011;18457;52.432;16.914;2023-08-31T03:40:21;17.70;;;12.90;;
31910;SDS011;18457;52.432;16.914;2023-08-31T03:42:53;18.10;;;13.10;;
31910;SDS011;18457;52.432;16.914;2023-08-31T03:45:25;23.40;;;12.90;;
31910;SDS011;18457;52.432;16.914;2023-08-31T03:47:57;21.70;;;15.20;;
31910;SDS011;18457;52.432;16.914;2023-08-31T03:50:29;21.80;;;14.60;;
31910;SDS011;18457;52.432;16.914;2023-08-31T03:53:01;22.80;;;14.30;;
31910;SDS011;18457;52.432;16.914;2023-08-31T03:55:35;26.70;;;15.20;;
31910;SDS011;18457;52.432;16.914;2023-08-31T03:58:08;21.00;;;14.20;;
31910;SDS011;18457;52.432;16.914;2023-08-31T04:00:41;22.10;;;14.50;;
31910;SDS011;18457;52.432;16.914;2023-08-31T04:03:13;23.30;;;14.50;;
31910;SDS011;18457;52.432;16.914;2023-08-31T04:05:46;24.90;;;14.30;;
31910;SDS011;18457;52.432;16.914;2023-08-31T04:08:18;23.70;;;15.30;;
31910;SDS011;18457;52.432;16.914;2023-08-31T04:10:49;25.90;;;15.50;;
31910;SDS011;18457;52.432;16.914;2023-08-31T04:13:23;23.90;;;14.40;;
31910;SDS011;18457;52.432;16.914;2023-08-31T04:15:55;20.80;;;14.70;;
31910;SDS011;18457;52.432;16.914;2023-08-31T04:18:27;24.00;;;15.10;;
31910;SDS011;18457;52.432;16.914;2023-08-31T04:20:59;23.90;;;15.70;;
31910;SDS011;18457;52.432;16.914;2023-08-31T04:23:32;22.70;;;14.90;;
31910;SDS011;18457;52.432;16.914;2023-08-31T04:26:10;20.40;;;14.90;;
31910;SDS011;18457;52.432;16.914;2023-08-31T04:28:43;26.40;;;14.80;;
31910;SDS011;18457;52.432;16.914;2023-08-31T04:31:15;24.70;;;16.50;;
31910;SDS011;18457;52.432;16.914;2023-08-31T04:33:47;25.20;;;16.10;;
31910;SDS011;18457;52.432;16.914;2023-08-31T04:36:22;23.20;;;15.40;;
31910;SDS011;18457;52.432;16.914;2023-08-31T04:38:54;27.40;;;16.00;;
31910;SDS011;18457;52.432;16.914;2023-08-31T04:41:26;22.00;;;16.40;;
31910;SDS011;18457;52.432;16.914;2023-08-31T04:43:59;21.00;;;14.60;;
31910;SDS011;18457;52.432;16.914;2023-08-31T04:46:31;23.10;;;16.40;;
31910;SDS011;18457;52.432;16.914;2023-08-31T04:49:03;27.30;;;16.00;;
31910;SDS011;18457;52.432;16.914;2023-08-31T04:51:35;19.80;;;11.50;;
31910;SDS011;18457;52.432;16.914;2023-08-31T04:54:09;25.50;;;15.40;;
31910;SDS011;18457;52.432;16.914;2023-08-31T04:56:43;33.60;;;16.40;;
31910;SDS011;18457;52.432;16.914;2023-08-31T04:59:15;27.20;;;16.00;;
31910;SDS011;18457;52.432;16.914;2023-08-31T05:01:47;21.80;;;15.20;;
31910;SDS011;18457;52.432;16.914;2023-08-31T05:04:19;25.80;;;16.40;;
31910;SDS011;18457;52.432;16.914;2023-08-31T05:06:52;26.70;;;16.00;;
31910;SDS011;18457;52.432;16.914;2023-08-31T05:09:25;22.90;;;15.10;;
31910;SDS011;18457;52.432;16.914;2023-08-31T05:12:21;25.30;;;14.70;;
31910;SDS011;18457;52.432;16.914;2023-08-31T05:14:54;26.80;;;16.20;;
31910;SDS011;18457;52.432;16.914;2023-08-31T05:17:26;24.40;;;15.30;;
31910;SDS011;18457;52.432;16.914;2023-08-31T05:19:59;22.20;;;14.70;;
31910;SDS011;18457;52.432;16.914;2023-08-31T05:22:33;23.00;;;14.80;;
31910;SDS011;18457;52.432;16.914;2023-08-31T05:25:06;21.90;;;15.00;;
31910;SDS011;18457;52.432;16.914;2023-08-31T05:27:38;23.60;;;15.80;;
31910;SDS011;18457;52.432;16.914;2023-08-31T05:30:11;25.50;;;15.30;;
31910;SDS011;18457;52.432;16.914;2023-08-31T05:35:14;23.40;;;14.30;;
31910;SDS011;18457;52.432;16.914;2023-08-31T05:40:17;21.60;;;13.60;;
31910;SDS011;18457;52.432;16.914;2023-08-31T05:42:49;21.80;;;14.40;;
31910;SDS011;18457;52.432;16.914;2023-08-31T05:45:21;30.10;;;16.40;;
31910;SDS011;18457;52.432;16.914;2023-08-31T05:47:53;25.00;;;15.50;;
31910;SDS011;18457;52.432;16.914;2023-08-31T05:50:25;15.70;;;11.30;;
31910;SDS011;18457;52.432;16.914;2023-08-31T05:52:57;27.00;;;14.80;;
31910;SDS011;18457;52.432;16.914;2023-08-31T05:55:29;18.50;;;13.60;;
31910;SDS011;18457;52.432;16.914;2023-08-31T05:58:02;21.70;;;14.20;;
31910;SDS011;18457;52.432;16.914;2023-08-31T06:00:34;25.40;;;14.80;;
31910;SDS011;18457;52.432;16.914;2023-08-31T06:03:07;25.40;;;15.10;;
31910;SDS011;18457;52.432;16.914;2023-08-31T06:05:41;18.20;;;13.70;;
31910;SDS011;18457;52.432;16.914;2023-08-31T06:08:15;19.80;;;14.10;;
31910;SDS011;18457;52.432;16.914;2023-08-31T06:10:47;19.60;;;11.80;;
31910;SDS011;18457;52.432;16.914;2023-08-31T06:13:19;17.60;;;12.20;;
31910;SDS011;18457;52.432;16.914;2023-08-31T06:15:51;23.50;;;13.00;;
31910;SDS011;18457;52.432;16.914;2023-08-31T06:18:24;19.30;;;13.90;;
31910;SDS011;18457;52.432;16.914;2023-08-31T06:20:56;16.30;;;12.50;;
31910;SDS011;18457;52.432;16.914;2023-08-31T06:23:28;19.40;;;13.20;;
31910;SDS011;18457;52.432;16.914;2023-08-31T06:26:00;19.70;;;12.80;;
31910;SDS011;18457;52.432;16.914;2023-08-31T06:28:33;18.10;;;12.90;;
31910;SDS011;18457;52.432;16.914;2023-08-31T06:31:05;21.00;;;13.30;;
31910;SDS011;18457;52.432;16.914;2023-08-31T06:33:38;14.70;;;12.30;;
31910;SDS011;18457;52.432;16.914;2023-08-31T06:36:10;20.60;;;13.40;;
31910;SDS011;18457;52.432;16.914;2023-08-31T06:38:42;18.80;;;13.80;;
31910;SDS011;18457;52.432;16.914;2023-08-31T06:41:14;17.30;;;12.80;;
31910;SDS011;18457;52.432;16.914;2023-08-31T06:43:46;20.90;;;13.40;;
31910;SDS011;18457;52.432;16.914;2023-08-31T06:46:18;20.60;;;13.50;;
31910;SDS011;18457;52.432;16.914;2023-08-31T06:48:53;18.40;;;12.30;;
31910;SDS011;18457;52.432;16.914;2023-08-31T06:51:25;19.00;;;13.40;;
31910;SDS011;18457;52.432;16.914;2023-08-31T06:53:58;16.00;;;12.10;;
31910;SDS011;18457;52.432;16.914;2023-08-31T06:56:35;15.80;;;13.50;;
31910;SDS011;18457;52.432;16.914;2023-08-31T06:59:08;19.10;;;12.80;;
31910;SDS011;18457;52.432;16.914;2023-08-31T07:01:39;11.20;;;8.70;;
31910;SDS011;18457;52.432;16.914;2023-08-31T07:04:12;16.40;;;12.20;;
31910;SDS011;18457;52.432;16.914;2023-08-31T07:06:43;20.00;;;13.60;;
31910;SDS011;18457;52.432;16.914;2023-08-31T07:09:16;24.60;;;12.30;;
31910;SDS011;18457;52.432;16.914;2023-08-31T07:11:48;15.40;;;13.10;;
31910;SDS011;18457;52.432;16.914;2023-08-31T07:14:20;17.10;;;12.80;;
31910;SDS011;18457;52.432;16.914;2023-08-31T07:16:52;17.00;;;11.80;;
31910;SDS011;18457;52.432;16.914;2023-08-31T07:19:24;16.50;;;12.00;;
31910;SDS011;18457;52.432;16.914;2023-08-31T07:22:21;14.10;;;11.30;;
31910;SDS011;18457;52.432;16.914;2023-08-31T07:24:53;14.10;;;10.40;;
31910;SDS011;18457;52.432;16.914;2023-08-31T07:27:24;12.00;;;10.30;;
31910;SDS011;18457;52.432;16.914;2023-08-31T07:29:56;12.00;;;10.70;;
31910;SDS011;18457;52.432;16.914;2023-08-31T07:32:29;16.00;;;10.70;;
31910;SDS011;18457;52.432;16.914;2023-08-31T07:37:34;14.10;;;10.10;;
31910;SDS011;18457;52.432;16.914;2023-08-31T07:40:08;13.40;;;9.60;;
31910;SDS011;18457;52.432;16.914;2023-08-31T07:42:41;11.30;;;8.50;;
31910;SDS011;18457;52.432;16.914;2023-08-31T07:45:13;17.00;;;9.70;;
31910;SDS011;18457;52.432;16.914;2023-08-31T07:47:45;12.20;;;9.60;;
31910;SDS011;18457;52.432;16.914;2023-08-31T07:50:17;13.10;;;9.60;;
31910;SDS011;18457;52.432;16.914;2023-08-31T07:52:49;10.90;;;9.80;;
31910;SDS011;18457;52.432;16.914;2023-08-31T07:55:21;11.10;;;9.60;;
31910;SDS011;18457;52.432;16.914;2023-08-31T07:57:53;12.20;;;8.60;;
31910;SDS011;18457;52.432;16.914;2023-08-31T08:00:25;10.90;;;9.30;;
31910;SDS011;18457;52.432;16.914;2023-08-31T08:02:58;13.50;;;9.90;;
31910;SDS011;18457;52.432;16.914;2023-08-31T08:05:30;12.30;;;9.70;;
31910;SDS011;18457;52.432;16.914;2023-08-31T08:08:02;12.40;;;9.30;;
31910;SDS011;18457;52.432;16.914;2023-08-31T08:10:35;11.90;;;10.00;;
31910;SDS011;18457;52.432;16.914;2023-08-31T08:13:07;14.90;;;10.10;;
31910;SDS011;18457;52.432;16.914;2023-08-31T08:18:10;15.10;;;10.90;;
31910;SDS011;18457;52.432;16.914;2023-08-31T08:20:42;13.80;;;10.60;;
31910;SDS011;18457;52.432;16.914;2023-08-31T08:23:17;18.00;;;12.40;;
31910;SDS011;18457;52.432;16.914;2023-08-31T08:25:51;15.80;;;11.00;;
31910;SDS011;18457;52.432;16.914;2023-08-31T08:28:23;14.50;;;10.80;;
31910;SDS011;18457;52.432;16.914;2023-08-31T08:30:55;12.80;;;11.50;;
31910;SDS011;18457;52.432;16.914;2023-08-31T08:33:27;12.70;;;11.00;;
31910;SDS011;18457;52.432;16.914;2023-08-31T08:36:00;11.70;;;10.40;;
31910;SDS011;18457;52.432;16.914;2023-08-31T08:41:05;12.60;;;8.40;;
31910;SDS011;18457;52.432;16.914;2023-08-31T08:43:37;10.80;;;9.10;;
31910;SDS011;18457;52.432;16.914;2023-08-31T08:46:13;10.70;;;8.30;;
31910;SDS011;18457;52.432;16.914;2023-08-31T08:48:46;10.40;;;8.20;;
31910;SDS011;18457;52.432;16.914;2023-08-31T08:51:19;9.00;;;7.90;;
31910;SDS011;18457;52.432;16.914;2023-08-31T08:53:52;8.10;;;7.30;;
31910;SDS011;18457;52.432;16.914;2023-08-31T08:56:26;8.40;;;6.20;;
31910;SDS011;18457;52.432;16.914;2023-08-31T08:58:58;7.30;;;6.30;;
31910;SDS011;18457;52.432;16.914;2023-08-31T09:01:30;7.30;;;5.90;;
31910;SDS011;18457;52.432;16.914;2023-08-31T09:04:05;6.90;;;6.10;;
31910;SDS011;18457;52.432;16.914;2023-08-31T09:06:39;6.90;;;6.20;;
31910;SDS011;18457;52.432;16.914;2023-08-31T09:09:11;6.90;;;6.00;;
31910;SDS011;18457;52.432;16.914;2023-08-31T09:11:44;7.30;;;5.90;;
31910;SDS011;18457;52.432;16.914;2023-08-31T09:14:17;11.20;;;7.00;;
31910;SDS011;18457;52.432;16.914;2023-08-31T09:16:50;6.50;;;5.80;;
31910;SDS011;18457;52.432;16.914;2023-08-31T09:19:23;6.80;;;5.80;;
31910;SDS011;18457;52.432;16.914;2023-08-31T09:22:21;6.70;;;5.90;;
31910;SDS011;18457;52.432;16.914;2023-08-31T09:24:54;6.90;;;6.20;;
31910;SDS011;18457;52.432;16.914;2023-08-31T09:27:26;10.20;;;6.60;;
31910;SDS011;18457;52.432;16.914;2023-08-31T09:30:00;7.60;;;6.30;;
31910;SDS011;18457;52.432;16.914;2023-08-31T09:32:32;6.30;;;5.70;;
31910;SDS011;18457;52.432;16.914;2023-08-31T09:35:04;7.40;;;6.60;;
31910;SDS011;18457;52.432;16.914;2023-08-31T09:37:56;8.10;;;6.30;;
31910;SDS011;18457;52.432;16.914;2023-08-31T09:40:29;7.20;;;6.10;;
31910;SDS011;18457;52.432;16.914;2023-08-31T09:43:02;9.90;;;6.10;;
31910;SDS011;18457;52.432;16.914;2023-08-31T09:45:36;8.80;;;6.40;;
31910;SDS011;18457;52.432;16.914;2023-08-31T09:48:15;7.00;;;6.20;;
31910;SDS011;18457;52.432;16.914;2023-08-31T09:50:52;6.70;;;5.40;;
31910;SDS011;18457;52.432;16.914;2023-08-31T09:53:25;7.40;;;6.00;;
31910;SDS011;18457;52.432;16.914;2023-08-31T09:55:59;9.80;;;5.60;;
31910;SDS011;18457;52.432;16.914;2023-08-31T10:01:02;7.40;;;5.30;;
31910;SDS011;18457;52.432;16.914;2023-08-31T10:03:48;7.10;;;5.80;;
31910;SDS011;18457;52.432;16.914;2023-08-31T10:06:21;6.70;;;5.50;;
31910;SDS011;18457;52.432;16.914;2023-08-31T10:08:54;6.90;;;5.50;;
31910;SDS011;18457;52.432;16.914;2023-08-31T10:11:28;7.60;;;5.40;;
31910;SDS011;18457;52.432;16.914;2023-08-31T10:14:00;13.00;;;5.90;;
31910;SDS011;18457;52.432;16.914;2023-08-31T10:16:34;10.60;;;6.40;;
31910;SDS011;18457;52.432;16.914;2023-08-31T10:19:10;8.60;;;6.30;;
31910;SDS011;18457;52.432;16.914;2023-08-31T10:21:42;11.20;;;7.10;;
31910;SDS011;18457;52.432;16.914;2023-08-31T10:24:14;12.40;;;7.20;;
31910;SDS011;18457;52.432;16.914;2023-08-31T10:26:46;11.10;;;7.50;;
31910;SDS011;18457;52.432;16.914;2023-08-31T10:32:23;9.70;;;7.50;;
31910;SDS011;18457;52.432;16.914;2023-08-31T10:35:08;12.60;;;8.20;;
31910;SDS011;18457;52.432;16.914;2023-08-31T10:37:41;14.30;;;9.90;;
31910;SDS011;18457;52.432;16.914;2023-08-31T10:40:13;16.00;;;9.80;;
31910;SDS011;18457;52.432;16.914;2023-08-31T10:42:47;15.80;;;9.40;;
31910;SDS011;18457;52.432;16.914;2023-08-31T10:45:44;15.60;;;8.30;;
31910;SDS011;18457;52.432;16.914;2023-08-31T10:48:16;10.90;;;8.10;;
31910;SDS011;18457;52.432;16.914;2023-08-31T10:53:19;12.30;;;7.70;;
31910;SDS011;18457;52.432;16.914;2023-08-31T10:55:59;11.90;;;6.80;;
31910;SDS011;18457;52.432;16.914;2023-08-31T10:58:32;8.40;;;6.50;;
31910;SDS011;18457;52.432;16.914;2023-08-31T11:01:05;12.80;;;6.20;;
31910;SDS011;18457;52.432;16.914;2023-08-31T11:06:29;7.20;;;5.80;;
31910;SDS011;18457;52.432;16.914;2023-08-31T11:09:01;12.20;;;6.50;;
31910;SDS011;18457;52.432;16.914;2023-08-31T11:11:38;8.60;;;5.90;;
31910;SDS011;18457;52.432;16.914;2023-08-31T11:14:10;11.00;;;5.70;;
31910;SDS011;18457;52.432;16.914;2023-08-31T11:16:42;5.20;;;4.70;;
31910;SDS011;18457;52.432;16.914;2023-08-31T11:19:15;9.70;;;4.90;;
31910;SDS011;18457;52.432;16.914;2023-08-31T11:21:48;6.40;;;4.20;;
31910;SDS011;18457;52.432;16.914;2023-08-31T11:24:20;5.70;;;4.00;;
31910;SDS011;18457;52.432;16.914;2023-08-31T11:29:23;4.80;;;3.70;;
31910;SDS011;18457;52.432;16.914;2023-08-31T11:32:24;5.70;;;4.30;;
31910;SDS011;18457;52.432;16.914;2023-08-31T11:34:56;6.60;;;4.90;;
31910;SDS011;18457;52.432;16.914;2023-08-31T11:37:31;6.60;;;4.80;;
31910;SDS011;18457;52.432;16.914;2023-08-31T11:40:06;7.00;;;4.00;;
31910;SDS011;18457;52.432;16.914;2023-08-31T11:42:40;7.70;;;4.00;;
31910;SDS011;18457;52.432;16.914;2023-08-31T11:45:13;4.90;;;3.80;;
31910;SDS011;18457;52.432;16.914;2023-08-31T11:47:45;5.50;;;4.00;;
31910;SDS011;18457;52.432;16.914;2023-08-31T11:50:18;6.20;;;3.60;;
31910;SDS011;18457;52.432;16.914;2023-08-31T11:52:51;7.40;;;4.50;;
31910;SDS011;18457;52.432;16.914;2023-08-31T11:55:24;5.70;;;4.20;;
31910;SDS011;18457;52.432;16.914;2023-08-31T11:57:57;5.50;;;4.20;;
31910;SDS011;18457;52.432;16.914;2023-08-31T12:00:30;5.60;;;4.10;;
31910;SDS011;18457;52.432;16.914;2023-08-31T12:03:03;6.70;;;4.60;;
31910;SDS011;18457;52.432;16.914;2023-08-31T12:05:46;4.30;;;3.90;;
31910;SDS011;18457;52.432;16.914;2023-08-31T12:08:24;4.40;;;3.80;;
31910;SDS011;18457;52.432;16.914;2023-08-31T12:10:58;7.40;;;4.70;;
31910;SDS011;18457;52.432;16.914;2023-08-31T12:13:32;8.70;;;5.10;;
31910;SDS011;18457;52.432;16.914;2023-08-31T12:16:04;12.30;;;5.10;;
31910;SDS011;18457;52.432;16.914;2023-08-31T12:18:43;7.70;;;5.00;;
31910;SDS011;18457;52.432;16.914;2023-08-31T12:21:16;7.50;;;5.40;;
31910;SDS011;18457;52.432;16.914;2023-08-31T12:23:51;6.80;;;5.00;;
31910;SDS011;18457;52.432;16.914;2023-08-31T12:26:23;9.50;;;5.30;;
31910;SDS011;18457;52.432;16.914;2023-08-31T12:28:55;8.90;;;5.70;;
31910;SDS011;18457;52.432;16.914;2023-08-31T12:31:27;9.00;;;5.30;;
31910;SDS011;18457;52.432;16.914;2023-08-31T12:33:59;6.60;;;4.70;;
31910;SDS011;18457;52.432;16.914;2023-08-31T12:36:35;5.70;;;4.40;;
31910;SDS011;18457;52.432;16.914;2023-08-31T12:39:09;7.80;;;4.40;;
31910;SDS011;18457;52.432;16.914;2023-08-31T12:41:41;5.80;;;4.30;;
31910;SDS011;18457;52.432;16.914;2023-08-31T12:44:13;6.40;;;4.50;;
31910;SDS011;18457;52.432;16.914;2023-08-31T12:46:45;11.40;;;4.70;;
31910;SDS011;18457;52.432;16.914;2023-08-31T12:49:17;5.40;;;4.30;;
31910;SDS011;18457;52.432;16.914;2023-08-31T12:51:51;5.20;;;4.20;;
31910;SDS011;18457;52.432;16.914;2023-08-31T12:54:23;6.90;;;3.70;;
31910;SDS011;18457;52.432;16.914;2023-08-31T12:57:21;5.00;;;4.00;;
31910;SDS011;18457;52.432;16.914;2023-08-31T12:59:53;7.20;;;3.90;;
31910;SDS011;18457;52.432;16.914;2023-08-31T13:02:25;5.50;;;3.60;;
31910;SDS011;18457;52.432;16.914;2023-08-31T13:07:29;6.20;;;3.50;;
31910;SDS011;18457;52.432;16.914;2023-08-31T13:10:01;9.50;;;3.90;;
31910;SDS011;18457;52.432;16.914;2023-08-31T13:13:25;6.90;;;4.00;;
31910;SDS011;18457;52.432;16.914;2023-08-31T13:15:57;5.70;;;4.40;;
31910;SDS011;18457;52.432;16.914;2023-08-31T13:21:00;6.50;;;4.10;;
31910;SDS011;18457;52.432;16.914;2023-08-31T13:23:33;7.40;;;4.50;;
31910;SDS011;18457;52.432;16.914;2023-08-31T13:26:05;7.90;;;3.90;;
31910;SDS011;18457;52.432;16.914;2023-08-31T13:28:37;5.40;;;4.00;;
31910;SDS011;18457;52.432;16.914;2023-08-31T13:31:10;5.10;;;4.20;;
31910;SDS011;18457;52.432;16.914;2023-08-31T13:33:42;5.40;;;3.30;;
31910;SDS011;18457;52.432;16.914;2023-08-31T13:36:14;6.80;;;3.90;;
31910;SDS011;18457;52.432;16.914;2023-08-31T13:38:46;8.10;;;3.10;;
31910;SDS011;18457;52.432;16.914;2023-08-31T13:41:19;6.00;;;3.40;;
31910;SDS011;18457;52.432;16.914;2023-08-31T13:43:51;9.80;;;3.60;;
31910;SDS011;18457;52.432;16.914;2023-08-31T13:46:23;5.60;;;3.40;;
31910;SDS011;18457;52.432;16.914;2023-08-31T13:48:55;4.30;;;3.50;;
31910;SDS011;18457;52.432;16.914;2023-08-31T13:51:27;5.50;;;3.50;;
31910;SDS011;18457;52.432;16.914;2023-08-31T13:54:01;3.40;;;2.90;;
31910;SDS011;18457;52.432;16.914;2023-08-31T13:56:35;4.20;;;3.10;;
31910;SDS011;18457;52.432;16.914;2023-08-31T13:59:08;6.60;;;3.60;;
31910;SDS011;18457;52.432;16.914;2023-08-31T14:01:40;3.20;;;2.70;;
31910;SDS011;18457;52.432;16.914;2023-08-31T14:04:12;5.30;;;2.80;;
31910;SDS011;18457;52.432;16.914;2023-08-31T14:06:44;3.30;;;2.90;;
31910;SDS011;18457;52.432;16.914;2023-08-31T14:09:17;5.10;;;3.10;;
31910;SDS011;18457;52.432;16.914;2023-08-31T14:11:49;6.10;;;3.20;;
31910;SDS011;18457;52.432;16.914;2023-08-31T14:14:21;4.80;;;2.90;;
31910;SDS011;18457;52.432;16.914;2023-08-31T14:19:24;4.20;;;2.70;;
31910;SDS011;18457;52.432;16.914;2023-08-31T14:22:21;7.40;;;2.90;;
31910;SDS011;18457;52.432;16.914;2023-08-31T14:24:52;4.60;;;2.50;;
31910;SDS011;18457;52.432;16.914;2023-08-31T14:27:25;3.40;;;2.30;;
31910;SDS011;18457;52.432;16.914;2023-08-31T14:29:59;3.60;;;2.80;;
31910;SDS011;18457;52.432;16.914;2023-08-31T14:32:31;5.20;;;2.60;;
31910;SDS011;18457;52.432;16.914;2023-08-31T14:35:04;4.30;;;2.40;;
31910;SDS011;18457;52.432;16.914;2023-08-31T14:37:37;3.70;;;2.80;;
31910;SDS011;18457;52.432;16.914;2023-08-31T14:40:11;3.10;;;1.90;;
31910;SDS011;18457;52.432;16.914;2023-08-31T14:45:14;3.00;;;1.90;;
31910;SDS011;18457;52.432;16.914;2023-08-31T14:47:46;2.30;;;1.40;;
31910;SDS011;18457;52.432;16.914;2023-08-31T14:50:18;4.20;;;1.40;;
31910;SDS011;18457;52.432;16.914;2023-08-31T14:52:50;2.00;;;1.80;;
31910;SDS011;18457;52.432;16.914;2023-08-31T14:55:22;1.80;;;1.50;;
31910;SDS011;18457;52.432;16.914;2023-08-31T14:57:55;2.90;;;1.80;;
31910;SDS011;18457;52.432;16.914;2023-08-31T15:00:27;2.60;;;1.70;;
31910;SDS011;18457;52.432;16.914;2023-08-31T15:02:59;2.20;;;1.70;;
31910;SDS011;18457;52.432;16.914;2023-08-31T15:05:31;4.90;;;2.10;;
31910;SDS011;18457;52.432;16.914;2023-08-31T15:08:05;5.40;;;1.90;;
31910;SDS011;18457;52.432;16.914;2023-08-31T15:10:37;4.30;;;1.70;;
31910;SDS011;18457;52.432;16.914;2023-08-31T15:15:41;4.30;;;2.40;;
31910;SDS011;18457;52.432;16.914;2023-08-31T15:18:15;3.90;;;2.10;;
31910;SDS011;18457;52.432;16.914;2023-08-31T15:20:48;3.20;;;2.10;;
31910;SDS011;18457;52.432;16.914;2023-08-31T15:23:20;4.90;;;2.30;;
31910;SDS011;18457;52.432;16.914;2023-08-31T15:25:58;4.60;;;2.70;;
31910;SDS011;18457;52.432;16.914;2023-08-31T15:28:32;6.80;;;2.30;;
31910;SDS011;18457;52.432;16.914;2023-08-31T15:31:04;3.80;;;2.60;;
31910;SDS011;18457;52.432;16.914;2023-08-31T15:33:36;5.10;;;2.60;;
31910;SDS011;18457;52.432;16.914;2023-08-31T15:36:08;4.00;;;2.50;;
31910;SDS011;18457;52.432;16.914;2023-08-31T15:41:12;4.50;;;2.70;;
31910;SDS011;18457;52.432;16.914;2023-08-31T15:43:44;4.40;;;3.00;;
31910;SDS011;18457;52.432;16.914;2023-08-31T15:46:16;4.90;;;3.00;;
31910;SDS011;18457;52.432;16.914;2023-08-31T15:48:49;3.40;;;2.70;;